sensor_id;sensor_type;location;lat;lon;timestamp;temperature;humidity
11214;DHT22;5664;48.606;13.456;2023-04-24T00:00:12;19.00;62.10
11214;DHT22;5664;48.606;13.456;2023-04-24T00:02:40;19.20;62.30
11214;DHT22;5664;48.606;13.456;2023-04-24T00:05:06;19.00;62.10
11214;DHT22;5664;48.606;13.456;2023-04-24T00:07:32;19.00;62.10
11214;DHT22;5664;48.606;13.456;2023-04-24T00:09:57;19.00;62.10
11214;DHT22;5664;48.606;13.456;2023-04-24T00:12:23;19.00;62.10
11214;DHT22;5664;48.606;13.456;2023-04-24T00:14:48;19.00;62.10
11214;DHT22;5664;48.606;13.456;2023-04-24T00:17:14;19.00;62.10
11214;DHT22;5664;48.606;13.456;2023-04-24T00:19:39;19.00;62.10
11214;DHT22;5664;48.606;13.456;2023-04-24T00:22:05;19.00;62.10
11214;DHT22;5664;48.606;13.456;2023-04-24T00:24:30;19.00;62.20
11214;DHT22;5664;48.606;13.456;2023-04-24T00:26:56;19.00;62.20
11214;DHT22;5664;48.606;13.456;2023-04-24T00:29:21;19.00;62.20
11214;DHT22;5664;48.606;13.456;2023-04-24T00:31:47;19.00;62.20
11214;DHT22;5664;48.606;13.456;2023-04-24T00:34:12;18.90;62.20
11214;DHT22;5664;48.606;13.456;2023-04-24T00:36:38;19.00;62.20
11214;DHT22;5664;48.606;13.456;2023-04-24T00:39:03;19.00;62.20
11214;DHT22;5664;48.606;13.456;2023-04-24T00:41:28;19.00;62.20
11214;DHT22;5664;48.606;13.456;2023-04-24T00:43:54;19.00;62.20
11214;DHT22;5664;48.606;13.456;2023-04-24T00:46:20;19.00;62.20
11214;DHT22;5664;48.606;13.456;2023-04-24T00:48:46;18.90;62.20
11214;DHT22;5664;48.606;13.456;2023-04-24T00:51:11;18.90;62.20
11214;DHT22;5664;48.606;13.456;2023-04-24T00:53:37;18.90;62.20
11214;DHT22;5664;48.606;13.456;2023-04-24T00:56:02;18.90;62.20
11214;DHT22;5664;48.606;13.456;2023-04-24T00:58:28;18.90;62.20
11214;DHT22;5664;48.606;13.456;2023-04-24T01:00:54;19.00;62.20
11214;DHT22;5664;48.606;13.456;2023-04-24T01:03:24;19.00;62.30
11214;DHT22;5664;48.606;13.456;2023-04-24T01:05:51;18.90;62.20
11214;DHT22;5664;48.606;13.456;2023-04-24T01:08:17;18.90;62.30
11214;DHT22;5664;48.606;13.456;2023-04-24T01:10:43;18.90;62.30
11214;DHT22;5664;48.606;13.456;2023-04-24T01:13:09;18.90;62.30
11214;DHT22;5664;48.606;13.456;2023-04-24T01:15:35;18.90;62.30
11214;DHT22;5664;48.606;13.456;2023-04-24T01:18:00;18.90;62.30
11214;DHT22;5664;48.606;13.456;2023-04-24T01:20:25;18.90;62.30
11214;DHT22;5664;48.606;13.456;2023-04-24T01:22:51;18.90;62.40
11214;DHT22;5664;48.606;13.456;2023-04-24T01:25:17;18.90;62.40
11214;DHT22;5664;48.606;13.456;2023-04-24T01:27:43;18.90;62.40
11214;DHT22;5664;48.606;13.456;2023-04-24T01:30:09;18.90;62.40
11214;DHT22;5664;48.606;13.456;2023-04-24T01:32:35;18.90;62.40
11214;DHT22;5664;48.606;13.456;2023-04-24T01:35:00;18.90;62.40
11214;DHT22;5664;48.606;13.456;2023-04-24T01:37:26;18.90;62.40
11214;DHT22;5664;48.606;13.456;2023-04-24T01:39:52;18.90;62.40
11214;DHT22;5664;48.606;13.456;2023-04-24T01:42:17;18.90;62.40
11214;DHT22;5664;48.606;13.456;2023-04-24T01:44:43;18.90;62.40
11214;DHT22;5664;48.606;13.456;2023-04-24T01:47:09;18.90;62.50
11214;DHT22;5664;48.606;13.456;2023-04-24T01:49:34;18.90;62.50
11214;DHT22;5664;48.606;13.456;2023-04-24T01:52:00;18.90;62.50
11214;DHT22;5664;48.606;13.456;2023-04-24T01:54:25;18.90;62.50
11214;DHT22;5664;48.606;13.456;2023-04-24T01:56:51;18.90;62.50
11214;DHT22;5664;48.606;13.456;2023-04-24T01:59:16;18.80;62.50
11214;DHT22;5664;48.606;13.456;2023-04-24T02:01:43;18.80;62.40
11214;DHT22;5664;48.606;13.456;2023-04-24T02:04:08;18.90;62.50
11214;DHT22;5664;48.606;13.456;2023-04-24T02:06:34;18.80;62.50
11214;DHT22;5664;48.606;13.456;2023-04-24T02:09:00;18.90;62.50
11214;DHT22;5664;48.606;13.456;2023-04-24T02:11:25;18.80;62.50
11214;DHT22;5664;48.606;13.456;2023-04-24T02:13:51;18.80;62.50
11214;DHT22;5664;48.606;13.456;2023-04-24T02:16:17;18.80;62.50
11214;DHT22;5664;48.606;13.456;2023-04-24T02:18:42;18.80;62.50
11214;DHT22;5664;48.606;13.456;2023-04-24T02:21:08;18.80;62.50
11214;DHT22;5664;48.606;13.456;2023-04-24T02:23:34;18.80;62.50
11214;DHT22;5664;48.606;13.456;2023-04-24T02:26:00;18.80;62.60
11214;DHT22;5664;48.606;13.456;2023-04-24T02:28:25;18.80;62.60
11214;DHT22;5664;48.606;13.456;2023-04-24T02:30:50;18.80;62.60
11214;DHT22;5664;48.606;13.456;2023-04-24T02:33:16;18.80;62.60
11214;DHT22;5664;48.606;13.456;2023-04-24T02:35:41;18.80;62.60
11214;DHT22;5664;48.606;13.456;2023-04-24T02:38:07;18.80;62.60
11214;DHT22;5664;48.606;13.456;2023-04-24T02:40:32;18.80;62.70
11214;DHT22;5664;48.606;13.456;2023-04-24T02:42:58;18.80;62.60
11214;DHT22;5664;48.606;13.456;2023-04-24T02:45:23;18.80;62.60
11214;DHT22;5664;48.606;13.456;2023-04-24T02:47:49;18.80;62.60
11214;DHT22;5664;48.606;13.456;2023-04-24T02:50:14;18.80;62.70
11214;DHT22;5664;48.606;13.456;2023-04-24T02:52:40;18.80;62.70
11214;DHT22;5664;48.606;13.456;2023-04-24T02:55:05;18.80;62.70
11214;DHT22;5664;48.606;13.456;2023-04-24T02:57:31;18.80;62.70
11214;DHT22;5664;48.606;13.456;2023-04-24T02:59:56;18.80;62.70
11214;DHT22;5664;48.606;13.456;2023-04-24T03:02:22;18.80;62.70
11214;DHT22;5664;48.606;13.456;2023-04-24T03:04:47;18.80;62.70
11214;DHT22;5664;48.606;13.456;2023-04-24T03:07:13;18.80;62.70
11214;DHT22;5664;48.606;13.456;2023-04-24T03:09:40;18.80;62.70
11214;DHT22;5664;48.606;13.456;2023-04-24T03:12:05;18.80;62.70
11214;DHT22;5664;48.606;13.456;2023-04-24T03:14:31;18.80;62.80
11214;DHT22;5664;48.606;13.456;2023-04-24T03:16:56;18.80;62.70
11214;DHT22;5664;48.606;13.456;2023-04-24T03:19:22;18.80;62.80
11214;DHT22;5664;48.606;13.456;2023-04-24T03:21:47;18.80;62.80
11214;DHT22;5664;48.606;13.456;2023-04-24T03:24:13;18.80;62.80
11214;DHT22;5664;48.606;13.456;2023-04-24T03:26:38;18.80;62.80
11214;DHT22;5664;48.606;13.456;2023-04-24T03:29:04;18.80;62.80
11214;DHT22;5664;48.606;13.456;2023-04-24T03:31:29;18.80;62.80
11214;DHT22;5664;48.606;13.456;2023-04-24T03:33:55;18.80;62.80
11214;DHT22;5664;48.606;13.456;2023-04-24T03:36:20;18.70;62.70
11214;DHT22;5664;48.606;13.456;2023-04-24T03:38:46;18.80;62.80
11214;DHT22;5664;48.606;13.456;2023-04-24T03:41:11;18.70;62.80
11214;DHT22;5664;48.606;13.456;2023-04-24T03:43:37;18.70;62.80
11214;DHT22;5664;48.606;13.456;2023-04-24T03:46:03;18.70;62.80
11214;DHT22;5664;48.606;13.456;2023-04-24T03:48:29;18.70;62.80
11214;DHT22;5664;48.606;13.456;2023-04-24T03:50:54;18.70;62.80
11214;DHT22;5664;48.606;13.456;2023-04-24T03:53:20;18.70;62.80
11214;DHT22;5664;48.606;13.456;2023-04-24T03:55:45;18.70;62.80
11214;DHT22;5664;48.606;13.456;2023-04-24T03:58:11;18.70;62.80
11214;DHT22;5664;48.606;13.456;2023-04-24T04:00:37;18.70;62.90
11214;DHT22;5664;48.606;13.456;2023-04-24T04:03:03;18.70;62.80
11214;DHT22;5664;48.606;13.456;2023-04-24T04:05:28;18.70;62.80
11214;DHT22;5664;48.606;13.456;2023-04-24T04:07:54;18.70;62.80
11214;DHT22;5664;48.606;13.456;2023-04-24T04:10:20;18.70;62.90
11214;DHT22;5664;48.606;13.456;2023-04-24T04:12:45;18.70;62.90
11214;DHT22;5664;48.606;13.456;2023-04-24T04:15:11;18.70;62.90
11214;DHT22;5664;48.606;13.456;2023-04-24T04:17:36;18.70;62.90
11214;DHT22;5664;48.606;13.456;2023-04-24T04:20:03;18.70;62.90
11214;DHT22;5664;48.606;13.456;2023-04-24T04:22:32;18.70;62.90
11214;DHT22;5664;48.606;13.456;2023-04-24T04:24:57;18.70;62.90
11214;DHT22;5664;48.606;13.456;2023-04-24T04:27:23;18.70;62.90
11214;DHT22;5664;48.606;13.456;2023-04-24T04:29:49;18.70;62.90
11214;DHT22;5664;48.606;13.456;2023-04-24T04:32:15;18.70;62.90
11214;DHT22;5664;48.606;13.456;2023-04-24T04:34:41;18.70;62.90
11214;DHT22;5664;48.606;13.456;2023-04-24T04:37:07;18.70;62.90
11214;DHT22;5664;48.606;13.456;2023-04-24T04:39:33;18.70;63.00
11214;DHT22;5664;48.606;13.456;2023-04-24T04:41:58;18.70;63.00
11214;DHT22;5664;48.606;13.456;2023-04-24T04:44:27;18.70;62.90
11214;DHT22;5664;48.606;13.456;2023-04-24T04:46:53;18.70;63.00
11214;DHT22;5664;48.606;13.456;2023-04-24T04:49:21;18.70;63.00
11214;DHT22;5664;48.606;13.456;2023-04-24T04:51:48;18.70;63.00
11214;DHT22;5664;48.606;13.456;2023-04-24T04:54:14;18.70;63.10
11214;DHT22;5664;48.606;13.456;2023-04-24T04:56:41;18.70;63.00
11214;DHT22;5664;48.606;13.456;2023-04-24T04:59:06;19.00;63.30
11214;DHT22;5664;48.606;13.456;2023-04-24T05:01:31;18.70;63.00
11214;DHT22;5664;48.606;13.456;2023-04-24T05:03:57;18.60;63.00
11214;DHT22;5664;48.606;13.456;2023-04-24T05:06:22;18.70;63.00
11214;DHT22;5664;48.606;13.456;2023-04-24T05:08:48;18.60;63.00
11214;DHT22;5664;48.606;13.456;2023-04-24T05:11:14;18.70;63.00
11214;DHT22;5664;48.606;13.456;2023-04-24T05:13:40;18.60;63.00
11214;DHT22;5664;48.606;13.456;2023-04-24T05:16:05;18.60;63.10
11214;DHT22;5664;48.606;13.456;2023-04-24T05:18:31;18.60;63.10
11214;DHT22;5664;48.606;13.456;2023-04-24T05:20:57;18.60;63.10
11214;DHT22;5664;48.606;13.456;2023-04-24T05:23:22;18.60;63.10
11214;DHT22;5664;48.606;13.456;2023-04-24T05:25:48;18.60;63.10
11214;DHT22;5664;48.606;13.456;2023-04-24T05:28:13;18.70;63.10
11214;DHT22;5664;48.606;13.456;2023-04-24T05:30:40;18.60;63.10
11214;DHT22;5664;48.606;13.456;2023-04-24T05:33:06;18.60;63.10
11214;DHT22;5664;48.606;13.456;2023-04-24T05:35:31;18.60;63.10
11214;DHT22;5664;48.606;13.456;2023-04-24T05:37:57;18.60;63.90
11214;DHT22;5664;48.606;13.456;2023-04-24T05:40:22;18.60;63.10
11214;DHT22;5664;48.606;13.456;2023-04-24T05:42:48;18.60;63.20
11214;DHT22;5664;48.606;13.456;2023-04-24T05:45:13;18.60;63.20
11214;DHT22;5664;48.606;13.456;2023-04-24T05:47:42;18.60;63.20
11214;DHT22;5664;48.606;13.456;2023-04-24T05:50:09;18.60;63.20
11214;DHT22;5664;48.606;13.456;2023-04-24T05:52:34;18.60;63.20
11214;DHT22;5664;48.606;13.456;2023-04-24T05:55:00;18.60;63.20
11214;DHT22;5664;48.606;13.456;2023-04-24T05:57:26;18.60;63.20
11214;DHT22;5664;48.606;13.456;2023-04-24T05:59:51;18.60;63.20
11214;DHT22;5664;48.606;13.456;2023-04-24T06:02:17;18.60;63.20
11214;DHT22;5664;48.606;13.456;2023-04-24T06:04:42;18.60;63.20
11214;DHT22;5664;48.606;13.456;2023-04-24T06:07:10;18.60;63.30
11214;DHT22;5664;48.606;13.456;2023-04-24T06:09:36;18.60;63.20
11214;DHT22;5664;48.606;13.456;2023-04-24T06:12:01;18.60;63.20
11214;DHT22;5664;48.606;13.456;2023-04-24T06:14:27;18.60;63.30
11214;DHT22;5664;48.606;13.456;2023-04-24T06:16:53;18.60;63.30
11214;DHT22;5664;48.606;13.456;2023-04-24T06:19:18;18.60;63.30
11214;DHT22;5664;48.606;13.456;2023-04-24T06:21:44;18.60;63.30
11214;DHT22;5664;48.606;13.456;2023-04-24T06:24:09;18.60;63.30
11214;DHT22;5664;48.606;13.456;2023-04-24T06:26:35;18.60;63.30
11214;DHT22;5664;48.606;13.456;2023-04-24T06:29:01;18.60;63.30
11214;DHT22;5664;48.606;13.456;2023-04-24T06:31:27;18.60;63.30
11214;DHT22;5664;48.606;13.456;2023-04-24T06:33:52;18.60;63.40
11214;DHT22;5664;48.606;13.456;2023-04-24T06:36:18;18.60;63.30
11214;DHT22;5664;48.606;13.456;2023-04-24T06:38:43;18.60;63.40
11214;DHT22;5664;48.606;13.456;2023-04-24T06:41:09;18.60;63.40
11214;DHT22;5664;48.606;13.456;2023-04-24T06:43:35;18.60;63.40
11214;DHT22;5664;48.606;13.456;2023-04-24T06:46:00;18.60;63.40
11214;DHT22;5664;48.606;13.456;2023-04-24T06:48:27;18.60;63.40
11214;DHT22;5664;48.606;13.456;2023-04-24T06:50:53;18.60;63.40
11214;DHT22;5664;48.606;13.456;2023-04-24T06:53:18;18.50;63.40
11214;DHT22;5664;48.606;13.456;2023-04-24T06:55:43;18.50;63.40
11214;DHT22;5664;48.606;13.456;2023-04-24T06:58:11;18.50;63.40
11214;DHT22;5664;48.606;13.456;2023-04-24T07:00:37;18.50;63.40
11214;DHT22;5664;48.606;13.456;2023-04-24T07:03:02;18.60;63.50
11214;DHT22;5664;48.606;13.456;2023-04-24T07:05:28;18.50;63.40
11214;DHT22;5664;48.606;13.456;2023-04-24T07:07:54;18.60;63.50
11214;DHT22;5664;48.606;13.456;2023-04-24T07:10:19;18.50;63.40
11214;DHT22;5664;48.606;13.456;2023-04-24T07:12:45;18.50;63.40
11214;DHT22;5664;48.606;13.456;2023-04-24T07:15:11;18.50;63.40
11214;DHT22;5664;48.606;13.456;2023-04-24T07:17:37;18.60;63.50
11214;DHT22;5664;48.606;13.456;2023-04-24T07:20:04;18.50;63.40
11214;DHT22;5664;48.606;13.456;2023-04-24T07:22:29;18.60;63.50
11214;DHT22;5664;48.606;13.456;2023-04-24T07:24:55;18.50;63.50
11214;DHT22;5664;48.606;13.456;2023-04-24T07:27:21;18.50;63.50
11214;DHT22;5664;48.606;13.456;2023-04-24T07:29:46;18.50;63.50
11214;DHT22;5664;48.606;13.456;2023-04-24T07:32:11;18.50;63.50
11214;DHT22;5664;48.606;13.456;2023-04-24T07:34:37;18.50;63.50
11214;DHT22;5664;48.606;13.456;2023-04-24T07:37:02;18.60;63.60
11214;DHT22;5664;48.606;13.456;2023-04-24T07:39:28;18.50;63.50
11214;DHT22;5664;48.606;13.456;2023-04-24T07:41:54;18.50;63.50
11214;DHT22;5664;48.606;13.456;2023-04-24T07:44:19;18.50;63.50
11214;DHT22;5664;48.606;13.456;2023-04-24T07:46:45;18.50;63.50
11214;DHT22;5664;48.606;13.456;2023-04-24T07:49:10;18.50;63.50
11214;DHT22;5664;48.606;13.456;2023-04-24T07:51:36;18.50;63.50
11214;DHT22;5664;48.606;13.456;2023-04-24T07:54:04;18.50;63.60
11214;DHT22;5664;48.606;13.456;2023-04-24T07:56:30;18.50;63.60
11214;DHT22;5664;48.606;13.456;2023-04-24T07:58:56;18.50;63.60
11214;DHT22;5664;48.606;13.456;2023-04-24T08:01:21;18.50;63.60
11214;DHT22;5664;48.606;13.456;2023-04-24T08:03:47;18.50;63.60
11214;DHT22;5664;48.606;13.456;2023-04-24T08:06:12;18.50;63.60
11214;DHT22;5664;48.606;13.456;2023-04-24T08:08:38;18.50;63.60
11214;DHT22;5664;48.606;13.456;2023-04-24T08:11:03;18.60;63.70
11214;DHT22;5664;48.606;13.456;2023-04-24T08:13:29;18.50;63.60
11214;DHT22;5664;48.606;13.456;2023-04-24T08:15:54;18.50;63.60
11214;DHT22;5664;48.606;13.456;2023-04-24T08:18:21;18.50;64.50
11214;DHT22;5664;48.606;13.456;2023-04-24T08:20:47;18.50;63.60
11214;DHT22;5664;48.606;13.456;2023-04-24T08:23:12;18.50;63.60
11214;DHT22;5664;48.606;13.456;2023-04-24T08:25:38;18.50;63.70
11214;DHT22;5664;48.606;13.456;2023-04-24T08:28:05;18.50;63.70
11214;DHT22;5664;48.606;13.456;2023-04-24T08:30:30;18.50;63.70
11214;DHT22;5664;48.606;13.456;2023-04-24T08:32:56;18.50;63.70
11214;DHT22;5664;48.606;13.456;2023-04-24T08:35:21;18.50;63.70
11214;DHT22;5664;48.606;13.456;2023-04-24T08:37:48;18.50;63.70
11214;DHT22;5664;48.606;13.456;2023-04-24T08:40:14;18.50;63.70
11214;DHT22;5664;48.606;13.456;2023-04-24T08:42:41;18.50;63.70
11214;DHT22;5664;48.606;13.456;2023-04-24T08:45:07;18.50;63.70
11214;DHT22;5664;48.606;13.456;2023-04-24T08:47:33;18.50;63.80
11214;DHT22;5664;48.606;13.456;2023-04-24T08:50:00;18.50;64.60
11214;DHT22;5664;48.606;13.456;2023-04-24T08:52:28;18.50;63.80
11214;DHT22;5664;48.606;13.456;2023-04-24T08:54:53;18.50;63.80
11214;DHT22;5664;48.606;13.456;2023-04-24T08:57:20;18.50;63.80
11214;DHT22;5664;48.606;13.456;2023-04-24T08:59:45;18.50;63.80
11214;DHT22;5664;48.606;13.456;2023-04-24T09:02:12;18.50;63.80
11214;DHT22;5664;48.606;13.456;2023-04-24T09:04:37;18.50;63.80
11214;DHT22;5664;48.606;13.456;2023-04-24T09:07:03;18.50;63.80
11214;DHT22;5664;48.606;13.456;2023-04-24T09:09:31;18.50;63.80
11214;DHT22;5664;48.606;13.456;2023-04-24T09:11:57;18.50;63.80
11214;DHT22;5664;48.606;13.456;2023-04-24T09:14:23;18.50;63.90
11214;DHT22;5664;48.606;13.456;2023-04-24T09:16:49;18.50;63.80
11214;DHT22;5664;48.606;13.456;2023-04-24T09:19:15;18.50;63.90
11214;DHT22;5664;48.606;13.456;2023-04-24T09:21:40;18.50;63.90
11214;DHT22;5664;48.606;13.456;2023-04-24T09:24:14;18.50;63.90
11214;DHT22;5664;48.606;13.456;2023-04-24T09:26:43;18.50;63.90
11214;DHT22;5664;48.606;13.456;2023-04-24T09:29:13;18.50;63.90
11214;DHT22;5664;48.606;13.456;2023-04-24T09:31:39;18.50;63.90
11214;DHT22;5664;48.606;13.456;2023-04-24T09:34:04;18.50;63.90
11214;DHT22;5664;48.606;13.456;2023-04-24T09:36:34;18.50;63.90
11214;DHT22;5664;48.606;13.456;2023-04-24T09:39:02;18.50;63.90
11214;DHT22;5664;48.606;13.456;2023-04-24T09:41:29;18.50;63.90
11214;DHT22;5664;48.606;13.456;2023-04-24T09:43:55;18.50;63.90
11214;DHT22;5664;48.606;13.456;2023-04-24T09:46:20;18.50;63.90
11214;DHT22;5664;48.606;13.456;2023-04-24T09:48:49;18.50;63.90
11214;DHT22;5664;48.606;13.456;2023-04-24T09:51:14;18.50;64.00
11214;DHT22;5664;48.606;13.456;2023-04-24T09:53:45;18.50;63.90
11214;DHT22;5664;48.606;13.456;2023-04-24T09:56:10;18.50;63.90
11214;DHT22;5664;48.606;13.456;2023-04-24T09:58:38;18.50;63.90
11214;DHT22;5664;48.606;13.456;2023-04-24T10:01:03;18.50;63.90
11214;DHT22;5664;48.606;13.456;2023-04-24T10:03:29;18.50;63.90
11214;DHT22;5664;48.606;13.456;2023-04-24T10:05:59;18.50;63.90
11214;DHT22;5664;48.606;13.456;2023-04-24T10:08:25;18.50;63.90
11214;DHT22;5664;48.606;13.456;2023-04-24T10:10:51;18.50;64.00
11214;DHT22;5664;48.606;13.456;2023-04-24T10:13:17;18.50;64.00
11214;DHT22;5664;48.606;13.456;2023-04-24T10:15:42;18.50;64.00
11214;DHT22;5664;48.606;13.456;2023-04-24T10:18:08;18.50;64.00
11214;DHT22;5664;48.606;13.456;2023-04-24T10:20:35;18.50;64.00
11214;DHT22;5664;48.606;13.456;2023-04-24T10:23:01;18.40;64.00
11214;DHT22;5664;48.606;13.456;2023-04-24T10:25:27;18.40;64.00
11214;DHT22;5664;48.606;13.456;2023-04-24T10:27:54;18.40;64.00
11214;DHT22;5664;48.606;13.456;2023-04-24T10:30:22;18.40;64.00
11214;DHT22;5664;48.606;13.456;2023-04-24T10:32:48;18.40;64.00
11214;DHT22;5664;48.606;13.456;2023-04-24T10:35:14;18.40;64.00
11214;DHT22;5664;48.606;13.456;2023-04-24T10:37:42;18.50;64.10
11214;DHT22;5664;48.606;13.456;2023-04-24T10:40:09;18.40;64.10
11214;DHT22;5664;48.606;13.456;2023-04-24T10:42:35;18.40;64.10
11214;DHT22;5664;48.606;13.456;2023-04-24T10:45:04;18.40;64.10
11214;DHT22;5664;48.606;13.456;2023-04-24T10:47:39;18.40;64.10
11214;DHT22;5664;48.606;13.456;2023-04-24T10:50:07;18.40;64.90
11214;DHT22;5664;48.606;13.456;2023-04-24T10:52:48;18.40;64.10
11214;DHT22;5664;48.606;13.456;2023-04-24T10:55:16;18.40;64.10
11214;DHT22;5664;48.606;13.456;2023-04-24T10:58:02;18.40;64.10
11214;DHT22;5664;48.606;13.456;2023-04-24T11:00:28;18.40;64.10
11214;DHT22;5664;48.606;13.456;2023-04-24T11:02:54;18.40;64.10
11214;DHT22;5664;48.606;13.456;2023-04-24T11:05:20;18.40;64.10
11214;DHT22;5664;48.606;13.456;2023-04-24T11:10:30;18.40;64.10
11214;DHT22;5664;48.606;13.456;2023-04-24T11:12:56;18.40;64.10
11214;DHT22;5664;48.606;13.456;2023-04-24T11:15:21;18.40;64.20
11214;DHT22;5664;48.606;13.456;2023-04-24T11:17:47;18.40;64.20
11214;DHT22;5664;48.606;13.456;2023-04-24T11:20:17;18.40;64.20
11214;DHT22;5664;48.606;13.456;2023-04-24T11:22:42;18.40;64.20
11214;DHT22;5664;48.606;13.456;2023-04-24T11:25:08;18.40;64.20
11214;DHT22;5664;48.606;13.456;2023-04-24T11:27:44;18.40;64.20
11214;DHT22;5664;48.606;13.456;2023-04-24T11:30:11;18.40;64.20
11214;DHT22;5664;48.606;13.456;2023-04-24T11:32:37;18.40;64.20
11214;DHT22;5664;48.606;13.456;2023-04-24T11:35:05;18.40;64.20
11214;DHT22;5664;48.606;13.456;2023-04-24T11:37:39;18.40;64.20
11214;DHT22;5664;48.606;13.456;2023-04-24T11:40:05;18.40;64.20
11214;DHT22;5664;48.606;13.456;2023-04-24T11:42:34;18.40;64.20
11214;DHT22;5664;48.606;13.456;2023-04-24T11:45:00;18.40;64.20
11214;DHT22;5664;48.606;13.456;2023-04-24T11:47:30;18.40;64.20
11214;DHT22;5664;48.606;13.456;2023-04-24T11:49:56;18.40;64.20
11214;DHT22;5664;48.606;13.456;2023-04-24T11:52:21;18.40;64.20
11214;DHT22;5664;48.606;13.456;2023-04-24T11:54:50;18.40;64.20
11214;DHT22;5664;48.606;13.456;2023-04-24T11:57:16;18.40;64.20
11214;DHT22;5664;48.606;13.456;2023-04-24T11:59:41;18.40;64.20
11214;DHT22;5664;48.606;13.456;2023-04-24T12:02:07;18.40;64.20
11214;DHT22;5664;48.606;13.456;2023-04-24T12:04:41;18.40;64.20
11214;DHT22;5664;48.606;13.456;2023-04-24T12:07:07;18.40;64.20
11214;DHT22;5664;48.606;13.456;2023-04-24T12:09:40;18.40;64.20
11214;DHT22;5664;48.606;13.456;2023-04-24T12:12:06;18.40;64.20
11214;DHT22;5664;48.606;13.456;2023-04-24T12:14:31;18.40;64.20
11214;DHT22;5664;48.606;13.456;2023-04-24T12:16:57;18.40;64.20
11214;DHT22;5664;48.606;13.456;2023-04-24T12:19:23;18.40;64.20
11214;DHT22;5664;48.606;13.456;2023-04-24T12:22:01;18.40;64.20
11214;DHT22;5664;48.606;13.456;2023-04-24T12:24:27;18.40;64.20
11214;DHT22;5664;48.606;13.456;2023-04-24T12:26:53;18.40;64.20
11214;DHT22;5664;48.606;13.456;2023-04-24T12:29:21;18.40;64.20
11214;DHT22;5664;48.606;13.456;2023-04-24T12:31:47;18.40;64.20
11214;DHT22;5664;48.606;13.456;2023-04-24T12:34:19;18.40;64.20
11214;DHT22;5664;48.606;13.456;2023-04-24T12:36:46;18.40;64.30
11214;DHT22;5664;48.606;13.456;2023-04-24T12:39:15;18.40;64.20
11214;DHT22;5664;48.606;13.456;2023-04-24T12:41:49;18.40;64.20
11214;DHT22;5664;48.606;13.456;2023-04-24T12:44:15;18.40;64.20
11214;DHT22;5664;48.606;13.456;2023-04-24T12:46:40;18.40;64.30
11214;DHT22;5664;48.606;13.456;2023-04-24T12:49:06;18.40;64.20
11214;DHT22;5664;48.606;13.456;2023-04-24T12:51:31;18.40;64.30
11214;DHT22;5664;48.606;13.456;2023-04-24T12:53:57;18.30;64.10
11214;DHT22;5664;48.606;13.456;2023-04-24T12:56:22;18.40;64.30
11214;DHT22;5664;48.606;13.456;2023-04-24T12:58:48;18.40;64.30
11214;DHT22;5664;48.606;13.456;2023-04-24T13:01:14;18.40;64.30
11214;DHT22;5664;48.606;13.456;2023-04-24T13:03:39;18.40;64.30
11214;DHT22;5664;48.606;13.456;2023-04-24T13:06:05;18.40;64.30
11214;DHT22;5664;48.606;13.456;2023-04-24T13:08:30;18.40;64.20
11214;DHT22;5664;48.606;13.456;2023-04-24T13:10:56;18.40;64.30
11214;DHT22;5664;48.606;13.456;2023-04-24T13:13:21;18.40;64.30
11214;DHT22;5664;48.606;13.456;2023-04-24T13:15:47;18.40;64.30
11214;DHT22;5664;48.606;13.456;2023-04-24T13:18:13;18.40;64.30
11214;DHT22;5664;48.606;13.456;2023-04-24T13:20:38;18.40;64.30
11214;DHT22;5664;48.606;13.456;2023-04-24T13:23:04;18.40;64.30
11214;DHT22;5664;48.606;13.456;2023-04-24T13:25:34;18.40;64.30
11214;DHT22;5664;48.606;13.456;2023-04-24T13:27:59;18.40;64.40
11214;DHT22;5664;48.606;13.456;2023-04-24T13:30:25;18.40;64.40
11214;DHT22;5664;48.606;13.456;2023-04-24T13:32:50;18.40;64.30
11214;DHT22;5664;48.606;13.456;2023-04-24T13:35:16;18.40;64.40
11214;DHT22;5664;48.606;13.456;2023-04-24T13:37:41;18.30;64.30
11214;DHT22;5664;48.606;13.456;2023-04-24T13:40:07;18.30;64.30
11214;DHT22;5664;48.606;13.456;2023-04-24T13:42:33;18.30;64.30
11214;DHT22;5664;48.606;13.456;2023-04-24T13:44:58;18.40;64.40
11214;DHT22;5664;48.606;13.456;2023-04-24T13:47:24;18.40;64.40
11214;DHT22;5664;48.606;13.456;2023-04-24T13:49:49;18.30;64.30
11214;DHT22;5664;48.606;13.456;2023-04-24T13:52:15;18.30;64.30
11214;DHT22;5664;48.606;13.456;2023-04-24T13:54:40;18.30;64.30
11214;DHT22;5664;48.606;13.456;2023-04-24T13:57:06;18.30;64.30
11214;DHT22;5664;48.606;13.456;2023-04-24T13:59:31;18.30;64.30
11214;DHT22;5664;48.606;13.456;2023-04-24T14:01:57;18.30;64.30
11214;DHT22;5664;48.606;13.456;2023-04-24T14:04:22;18.30;64.30
11214;DHT22;5664;48.606;13.456;2023-04-24T14:06:48;18.30;64.30
11214;DHT22;5664;48.606;13.456;2023-04-24T14:09:13;18.30;64.30
11214;DHT22;5664;48.606;13.456;2023-04-24T14:11:39;18.30;64.30
11214;DHT22;5664;48.606;13.456;2023-04-24T14:14:04;18.30;64.30
11214;DHT22;5664;48.606;13.456;2023-04-24T14:16:30;18.30;64.30
11214;DHT22;5664;48.606;13.456;2023-04-24T14:18:56;18.30;64.30
11214;DHT22;5664;48.606;13.456;2023-04-24T14:21:22;18.30;65.20
11214;DHT22;5664;48.606;13.456;2023-04-24T14:23:47;18.30;64.30
11214;DHT22;5664;48.606;13.456;2023-04-24T14:26:12;18.30;64.30
11214;DHT22;5664;48.606;13.456;2023-04-24T14:28:38;18.30;64.30
11214;DHT22;5664;48.606;13.456;2023-04-24T14:31:03;18.30;64.40
11214;DHT22;5664;48.606;13.456;2023-04-24T14:33:29;18.30;64.30
11214;DHT22;5664;48.606;13.456;2023-04-24T14:35:54;18.30;64.40
11214;DHT22;5664;48.606;13.456;2023-04-24T14:38:20;18.30;64.30
11214;DHT22;5664;48.606;13.456;2023-04-24T14:40:45;18.30;64.30
11214;DHT22;5664;48.606;13.456;2023-04-24T14:43:11;18.30;64.40
11214;DHT22;5664;48.606;13.456;2023-04-24T14:45:37;18.30;65.20
11214;DHT22;5664;48.606;13.456;2023-04-24T14:48:03;18.30;64.40
11214;DHT22;5664;48.606;13.456;2023-04-24T14:50:28;18.30;64.40
11214;DHT22;5664;48.606;13.456;2023-04-24T14:52:54;18.30;64.40
11214;DHT22;5664;48.606;13.456;2023-04-24T14:55:22;18.30;64.40
11214;DHT22;5664;48.606;13.456;2023-04-24T14:57:48;18.30;64.40
11214;DHT22;5664;48.606;13.456;2023-04-24T15:00:13;18.20;64.30
11214;DHT22;5664;48.606;13.456;2023-04-24T15:02:39;18.30;64.40
11214;DHT22;5664;48.606;13.456;2023-04-24T15:05:07;18.30;64.40
11214;DHT22;5664;48.606;13.456;2023-04-24T15:07:33;18.30;64.40
11214;DHT22;5664;48.606;13.456;2023-04-24T15:10:00;18.30;64.40
11214;DHT22;5664;48.606;13.456;2023-04-24T15:12:26;18.20;64.30
11214;DHT22;5664;48.606;13.456;2023-04-24T15:14:51;18.20;64.40
11214;DHT22;5664;48.606;13.456;2023-04-24T15:17:16;18.20;64.30
11214;DHT22;5664;48.606;13.456;2023-04-24T15:19:42;18.20;64.40
11214;DHT22;5664;48.606;13.456;2023-04-24T15:22:07;18.20;64.30
11214;DHT22;5664;48.606;13.456;2023-04-24T15:24:33;18.20;64.40